• Join FlightAware (Why Join?)
  • Login
  • US Flag 
06:30AM EDT


 

Airport Tracker/Info


-or-


 

Live Flight TrackerFlight Track Log ✈ TRS587 ✈ 25-Aug-2013 ✈ KMCO - KMDW

Flight Track Log - Related Links

Times and Time Zones

All times are in EDT time to prevent confusion due to time zone crossing. See the TRS587 flight status page for this flight to view local times or setup timezone preferences in your user account.

Time Position Orientation Groundspeed Altitude Reporting Facility
EDT Latitude Longitude Course Direction KTS MPH feet Rate Location/Type
10:37AM 28.4333 -81.3000 348° North 163 188 1,000  Level Orlando TRACON
10:39AM 28.5000 -81.3167 348° North 222 255 2,700 1,620 Climbing Orlando TRACON
10:40AM 28.5500 -81.3667 319° Northwest 273 314 4,800 1,980 Climbing Orlando TRACON
10:41AM 28.5500 -81.4500 270° West 278 320 6,700 2,280 Climbing Orlando TRACON
10:42AM 28.5500 -81.5333 270° West 289 333 9,200 1,680 Climbing Orlando TRACON
10:44AM 28.5231 -81.8011 264° West 340 391 12,600 1,380 Climbing Jacksonville Center
10:45AM 28.5281 -81.9192 273° West 361 415 14,100 1,560 Climbing Jacksonville Center
10:46AM 28.5456 -82.0394 279° West 380 437 15,800 1,500 Climbing Jacksonville Center
10:47AM 28.5611 -82.1503 279° West 391 450 17,100 1,320 Climbing Jacksonville Center
10:48AM 28.5867 -82.2897 282° West 407 468 18,500 1,500 Climbing Jacksonville Center
10:49AM 28.6103 -82.4219 282° West 418 481 20,100 1,620 Climbing Jacksonville Center
10:50AM 28.6400 -82.5519 285° West 424 488 21,800 1,440 Climbing Jacksonville Center
10:51AM 28.7319 -82.6275 324° Northwest 399 459 23,000 1,200 Climbing Jacksonville Center
10:52AM 28.8467 -82.6792 338° Northwest 410 472 24,200 1,080 Climbing Jacksonville Center
10:53AM 28.9658 -82.7336 338° Northwest 422 486 25,200 960 Climbing Jacksonville Center
10:54AM 29.0828 -82.7906 337° Northwest 442 509 26,200 960 Climbing Jacksonville Center
10:55AM 29.2039 -82.8450 339° North 453 521 27,200 1,020 Climbing Jacksonville Center
10:56AM 29.3250 -82.9022 338° Northwest 460 529 28,300 960 Climbing Jacksonville Center
10:57AM 29.4461 -82.9594 338° Northwest 465 535 29,200 1,020 Climbing Jacksonville Center
10:58AM 29.5567 -83.0119 338° Northwest 475 547 30,400 1,200 Climbing Jacksonville Center
10:59AM 29.6756 -83.0719 336° Northwest 469 540 31,600 780 Climbing Jacksonville Center
11:00AM 29.7944 -83.1247 339° North 463 533 32,000 180 Climbing Jacksonville Center
11:01AM 29.9069 -83.1800 337° Northwest 452 520 32,000  Level Jacksonville Center
11:02AM 30.0322 -83.2381 338° Northwest 457 526 32,000  Level Jacksonville Center
11:03AM 30.1469 -83.2914 338° Northwest 457 526 32,000  Level Jacksonville Center
11:04AM 30.2594 -83.3447 338° Northwest 452 520 32,000  Level Jacksonville Center
11:05AM 30.3719 -83.3983 338° Northwest 441 507 32,000  Level Jacksonville Center
11:06AM 30.4867 -83.4519 338° Northwest 441 507 32,000  Level Jacksonville Center
11:07AM 30.6011 -83.5081 337° Northwest 441 507 32,000  Level Jacksonville Center
11:08AM 30.7261 -83.5717 336° Northwest 441 507 32,000  Level Jacksonville Center
11:09AM 30.8386 -83.6233 338° Northwest 441 507 32,000  Level Jacksonville Center
11:10AM 30.9531 -83.6800 337° Northwest 441 507 32,000  Level Jacksonville Center
11:11AM 31.0633 -83.7342 337° Northwest 441 507 32,000  Level Jacksonville Center
11:13AM 31.2956 -83.8494 337° Northwest 435 501 32,000  Level Atlanta Center
11:14AM 31.4083 -83.9075 336° Northwest 440 506 32,000  Level Atlanta Center
11:15AM 31.5253 -83.9608 339° North 440 506 32,000  Level Atlanta Center
11:16AM 31.6486 -83.9925 348° North 440 506 32,000  Level Atlanta Center
11:17AM 31.7736 -84.0169 351° North 447 514 32,000  Level Atlanta Center
11:18AM 31.8969 -84.0436 350° North 447 514 32,000  Level Atlanta Center
11:19AM 32.0056 -84.0658 350° North 447 514 32,000  Level Atlanta Center
11:20AM 32.1264 -84.0953 348° North 447 514 32,000  Level Atlanta Center
11:21AM 32.2475 -84.1222 349° North 447 514 32,000  Level Atlanta Center
11:22AM 32.3664 -84.1494 349° North 442 509 32,000  Level Atlanta Center
11:23AM 32.4875 -84.1767 349° North 442 509 32,000  Level Atlanta Center
11:24AM 32.6044 -84.2017 350° North 437 503 32,000  Level Atlanta Center
11:25AM 32.7275 -84.2289 349° North 437 503 32,000  Level Atlanta Center
11:26AM 32.8569 -84.2639 347° North 432 497 32,000  Level Atlanta Center
11:27AM 32.9778 -84.2889 350° North 432 497 32,000  Level Atlanta Center
11:28AM 33.0989 -84.3167 349° North 432 497 32,000  Level Atlanta Center
11:29AM 33.2200 -84.3442 349° North 432 497 32,000  Level Atlanta Center
11:30AM 33.3431 -84.3719 349° North 437 503 32,000  Level Atlanta Center
11:31AM 33.4639 -84.4000 349° North 437 503 32,000  Level Atlanta Center
11:32AM 33.5850 -84.4278 349° North 437 503 32,000  Level Atlanta Center
11:33AM 33.7058 -84.4583 348° North 443 510 32,000  Level Atlanta Center
11:34AM 33.8311 -84.4864 349° North 449 517 32,000  Level Atlanta Center
11:35AM 33.9542 -84.5172 348° North 449 517 32,000  Level Atlanta Center
11:36AM 34.0811 -84.5478 349° North 449 517 32,000  Level Atlanta Center
11:37AM 34.2083 -84.5764 349° North 464 534 32,000  Level Atlanta Center
11:38AM 34.3336 -84.6047 349° North 464 534 32,000  Level Atlanta Center
11:39AM 34.4564 -84.6358 348° North 459 528 32,000  Level Atlanta Center
11:40AM 34.5794 -84.6644 349° North 448 516 32,000  Level Atlanta Center
11:41AM 34.6983 -84.7006 346° North 448 516 32,000  Level Atlanta Center
11:42AM 34.8172 -84.7269 350° North 442 509 32,000  Level Atlanta Center
11:43AM 34.9358 -84.7583 348° North 442 509 32,000  Level Atlanta Center
11:44AM 35.0442 -84.7847 349° North 436 502 32,000  Level Atlanta Center
11:45AM 35.1672 -84.8136 349° North 436 502 32,000  Level Atlanta Center
11:46AM 35.2858 -84.8453 348° North 436 502 32,000  Level Atlanta Center
11:47AM 35.4044 -84.8769 348° North 436 502 32,000  Level Atlanta Center
11:48AM 35.5253 -84.9064 349° North 436 502 32,000  Level Atlanta Center
11:49AM 35.6442 -84.9358 349° North 436 502 32,000  Level Atlanta Center
11:50AM 35.7628 -84.9728 346° North 431 496 32,000  Level Atlanta Center
11:52AM 35.9717 -85.0186 350° North 449 517 32,000  Level Indianapolis Center
11:53AM 36.0869 -85.0469 349° North 439 505 32,000  Level Indianapolis Center
11:54AM 36.2056 -85.0769 348° North 435 501 32,000  Level Indianapolis Center
11:55AM 36.3242 -85.1081 348° North 435 501 32,000  Level Indianapolis Center
11:56AM 36.4658 -85.1439 349° North 432 497 32,000  Level Indianapolis Center
11:57AM 36.5844 -85.1756 348° North 434 499 32,000  Level Indianapolis Center
11:58AM 36.7031 -85.2058 348° North 435 501 32,000  Level Indianapolis Center
11:59AM 36.8214 -85.2364 348° North 433 498 32,000  Level Indianapolis Center
12:00PM 36.9406 -85.2672 348° North 436 502 32,000  Level Indianapolis Center
12:01PM 37.0667 -85.3014 348° North 436 502 32,000  Level Indianapolis Center
12:02PM 37.1856 -85.3339 348° North 436 502 32,000  Level Indianapolis Center
12:03PM 37.3064 -85.3650 348° North 440 506 32,000  Level Indianapolis Center
12:04PM 37.4269 -85.3925 350° North 440 506 32,000  Level Indianapolis Center
12:05PM 37.5708 -85.4203 351° North 444 511 32,000  Level Indianapolis Center
12:06PM 37.6947 -85.4467 350° North 447 514 32,000  Level Indianapolis Center
12:07PM 37.8208 -85.4736 350° North 456 525 32,000  Level Indianapolis Center
12:08PM 37.9608 -85.5003 351° North 469 540 32,000  Level Indianapolis Center
12:09PM 38.0881 -85.5275 350° North 465 535 32,000  Level Indianapolis Center
12:10PM 38.2161 -85.5539 351° North 466 536 32,000  Level Indianapolis Center
12:11PM 38.3417 -85.5806 351° North 459 528 32,000  Level Indianapolis Center
12:12PM 38.4664 -85.6081 350° North 457 526 32,000  Level Indianapolis Center
12:14PM 38.5917 -85.6342 351° North 456 525 32,000 -300 Level Indianapolis Center
12:15PM 38.7256 -85.6625 351° North 454 522 31,500 -660 Descending Indianapolis Center
12:16PM 38.8497 -85.6894 350° North 453 521 30,700 -780 Descending Indianapolis Center
12:17PM 38.9747 -85.7156 351° North 457 526 30,000 -660 Descending Indianapolis Center
12:18PM 39.1281 -85.7489 350° North 466 536 29,400 -540 Descending Indianapolis Center
12:19PM 39.2569 -85.7769 350° North 472 543 29,000 -240 Descending Indianapolis Center
12:20PM 39.3872 -85.8056 350° North 476 548 29,000  Level Indianapolis Center
12:21PM 39.5178 -85.8336 351° North 478 550 29,000  Level Indianapolis Center
12:22PM 39.6467 -85.8614 351° North 476 548 29,000 -660 Level Indianapolis Center
12:23PM 39.8011 -85.8950 351° North 476 548 27,700 -1,680 Descending Indianapolis Center
12:24PM 39.9292 -85.9233 350° North 475 547 25,600 -1,800 Descending Indianapolis Center
12:25PM 40.0522 -85.9622 346° North 464 534 24,000 -840 Descending Indianapolis Center
12:26PM 40.1728 -86.0164 341° North 464 534 24,000 -180 Level Chicago Center
12:27PM 40.2922 -86.0728 340° North 461 531 23,700 -540 Descending Chicago Center
12:28PM 40.4106 -86.1289 340° North 457 526 22,900 -780 Descending Chicago Center
12:29PM 40.5494 -86.1967 340° North 449 517 22,100 -1,260 Descending Chicago Center
12:30PM 40.6644 -86.2506 340° North 442 509 20,300 -2,220 Descending Chicago Center
12:31PM 40.7678 -86.2975 341° North 421 484 17,600 -2,760 Descending Chicago Center
12:32PM 40.8731 -86.3478 340° North 408 470 14,700 -2,940 Descending Chicago Center
12:33PM 40.9972 -86.4083 340° North 398 458 11,600 -1,800 Descending Chicago Center
12:34PM 41.0750 -86.4978 319° Northwest 382 440 11,100 -600 Descending Chicago Center
12:35PM 41.1364 -86.6103 306° West 371 427 10,400 -540 Descending Chicago Center
12:36PM 41.2072 -86.7122 313° West 372 428 10,100 -180 Descending Chicago Center
12:37PM 41.2753 -86.8100 313° West 365 420 10,100 -60 Level Chicago Center
12:38PM 41.3531 -86.9200 313° West 343 395 10,000 -780 Descending Chicago Center
12:39PM 41.4042 -86.9975 311° West 294 338 8,500 -1,500 Descending Chicago Center
12:40PM 41.4428 -87.0883 300° West 285 328 7,000 -1,260 Descending Chicago Center
12:41PM 41.4789 -87.1764 299° West 277 319 6,000 -780 Descending Chicago Center
12:42PM 41.5158 -87.2653 299° West 275 316 5,400 -900 Descending Chicago Center
12:43PM 41.5581 -87.3672 299° West 266 306 4,200 -720 Descending Chicago Center
12:44PM 41.5939 -87.4511 300° West 264 304 4,000 -120 Descending Chicago Center
12:46PM 41.6294 -87.5325 300° West 259 298 4,000 -240 Level Chicago Center
12:47PM 41.6747 -87.5975 313° West 251 289 3,600 -780 Descending Chicago Center
12:48PM 41.7136 -87.6522 314° West 229 264 2,500 -780 Descending Chicago Center
12:49PM 41.7683 -87.6869 335° Northwest 208 239 2,100 -420 Descending Chicago Center
12:50PM 41.8128 -87.6967 351° North 188 216 1,700 -540 Descending Chicago Center
12:51PM 41.8006 -87.7289 243° Southwest 163 188 1,100 -600 Descending Chicago Center
12:53PM 41.7833 -87.7500 14° North  Level FlightAware Approximate